sensor_id;sensor_type;location;lat;lon;timestamp;temperature;humidity
1626;DHT22;806;48.770;9.156;2024-01-27T00:02:12;5.80;1.00
1626;DHT22;806;48.770;9.156;2024-01-27T00:04:39;5.80;99.90
1626;DHT22;806;48.770;9.156;2024-01-27T00:07:06;5.70;99.90
1626;DHT22;806;48.770;9.156;2024-01-27T00:09:33;5.60;1.00
1626;DHT22;806;48.770;9.156;2024-01-27T00:12:02;5.60;1.00
1626;DHT22;806;48.770;9.156;2024-01-27T00:14:29;5.60;1.00
1626;DHT22;806;48.770;9.156;2024-01-27T00:16:56;5.50;1.00
1626;DHT22;806;48.770;9.156;2024-01-27T00:19:23;5.50;99.90
1626;DHT22;806;48.770;9.156;2024-01-27T00:21:50;5.50;99.90
1626;DHT22;806;48.770;9.156;2024-01-27T00:24:17;5.50;1.00
1626;DHT22;806;48.770;9.156;2024-01-27T00:26:44;5.50;1.00
1626;DHT22;806;48.770;9.156;2024-01-27T00:29:12;5.50;99.90
1626;DHT22;806;48.770;9.156;2024-01-27T00:31:40;5.40;1.00
1626;DHT22;806;48.770;9.156;2024-01-27T00:34:07;5.10;99.90
1626;DHT22;806;48.770;9.156;2024-01-27T00:36:34;5.00;99.90
1626;DHT22;806;48.770;9.156;2024-01-27T00:39:02;5.00;1.00
1626;DHT22;806;48.770;9.156;2024-01-27T00:41:30;4.90;1.00
1626;DHT22;806;48.770;9.156;2024-01-27T00:43:57;4.90;1.00
1626;DHT22;806;48.770;9.156;2024-01-27T00:46:25;4.90;1.00
1626;DHT22;806;48.770;9.156;2024-01-27T00:48:52;4.90;99.90
1626;DHT22;806;48.770;9.156;2024-01-27T00:51:19;4.80;99.90
1626;DHT22;806;48.770;9.156;2024-01-27T00:53:46;4.80;27.90
1626;DHT22;806;48.770;9.156;2024-01-27T00:56:13;4.80;1.00
1626;DHT22;806;48.770;9.156;2024-01-27T00:58:41;4.70;1.00
1626;DHT22;806;48.770;9.156;2024-01-27T01:01:08;4.60;1.00
1626;DHT22;806;48.770;9.156;2024-01-27T01:03:36;4.50;1.00
1626;DHT22;806;48.770;9.156;2024-01-27T01:06:03;4.50;99.90
1626;DHT22;806;48.770;9.156;2024-01-27T01:08:31;4.50;99.90
1626;DHT22;806;48.770;9.156;2024-01-27T01:10:58;4.60;99.90
1626;DHT22;806;48.770;9.156;2024-01-27T01:13:25;4.80;99.90
1626;DHT22;806;48.770;9.156;2024-01-27T01:15:52;4.90;99.90
1626;DHT22;806;48.770;9.156;2024-01-27T01:18:19;5.00;1.00
1626;DHT22;806;48.770;9.156;2024-01-27T01:20:47;4.80;1.00
1626;DHT22;806;48.770;9.156;2024-01-27T01:23:15;4.70;1.00
1626;DHT22;806;48.770;9.156;2024-01-27T01:25:42;4.60;1.00
1626;DHT22;806;48.770;9.156;2024-01-27T01:28:09;4.50;1.00
1626;DHT22;806;48.770;9.156;2024-01-27T01:30:37;4.40;99.90
1626;DHT22;806;48.770;9.156;2024-01-27T01:33:04;4.40;99.90
1626;DHT22;806;48.770;9.156;2024-01-27T01:35:31;4.30;99.90
1626;DHT22;806;48.770;9.156;2024-01-27T01:37:59;4.30;99.90
1626;DHT22;806;48.770;9.156;2024-01-27T01:40:26;4.20;1.00
1626;DHT22;806;48.770;9.156;2024-01-27T01:42:53;4.20;99.90
1626;DHT22;806;48.770;9.156;2024-01-27T01:45:20;4.30;99.90
1626;DHT22;806;48.770;9.156;2024-01-27T01:47:47;4.20;99.90
1626;DHT22;806;48.770;9.156;2024-01-27T01:50:14;4.10;99.90
1626;DHT22;806;48.770;9.156;2024-01-27T01:52:42;4.10;1.00
1626;DHT22;806;48.770;9.156;2024-01-27T01:55:10;4.10;1.00
1626;DHT22;806;48.770;9.156;2024-01-27T01:57:37;4.10;1.00
1626;DHT22;806;48.770;9.156;2024-01-27T02:00:06;4.10;1.00
1626;DHT22;806;48.770;9.156;2024-01-27T02:02:33;4.00;1.00
1626;DHT22;806;48.770;9.156;2024-01-27T02:05:00;4.00;1.00
1626;DHT22;806;48.770;9.156;2024-01-27T02:07:27;4.10;1.00
1626;DHT22;806;48.770;9.156;2024-01-27T02:09:54;4.00;1.00
1626;DHT22;806;48.770;9.156;2024-01-27T02:12:23;4.00;1.00
1626;DHT22;806;48.770;9.156;2024-01-27T02:14:50;4.00;1.00
1626;DHT22;806;48.770;9.156;2024-01-27T02:17:17;4.00;1.00
1626;DHT22;806;48.770;9.156;2024-01-27T02:19:44;4.10;1.00
1626;DHT22;806;48.770;9.156;2024-01-27T02:22:11;4.10;1.00
1626;DHT22;806;48.770;9.156;2024-01-27T02:24:39;4.00;99.90
1626;DHT22;806;48.770;9.156;2024-01-27T02:27:06;4.10;1.00
1626;DHT22;806;48.770;9.156;2024-01-27T02:29:33;4.10;1.00
1626;DHT22;806;48.770;9.156;2024-01-27T02:32:00;4.30;1.00
1626;DHT22;806;48.770;9.156;2024-01-27T02:34:27;4.40;1.00
1626;DHT22;806;48.770;9.156;2024-01-27T02:36:54;4.40;99.90
1626;DHT22;806;48.770;9.156;2024-01-27T02:39:21;4.30;99.90
1626;DHT22;806;48.770;9.156;2024-01-27T02:41:49;4.20;99.90
1626;DHT22;806;48.770;9.156;2024-01-27T02:44:16;4.00;99.90
1626;DHT22;806;48.770;9.156;2024-01-27T02:46:43;4.00;1.00
1626;DHT22;806;48.770;9.156;2024-01-27T02:49:10;4.00;99.90
1626;DHT22;806;48.770;9.156;2024-01-27T02:51:37;4.00;99.90
1626;DHT22;806;48.770;9.156;2024-01-27T02:54:04;4.00;1.00
1626;DHT22;806;48.770;9.156;2024-01-27T02:56:31;4.00;1.00
1626;DHT22;806;48.770;9.156;2024-01-27T02:59:00;4.00;1.00
1626;DHT22;806;48.770;9.156;2024-01-27T03:01:26;4.10;1.00
1626;DHT22;806;48.770;9.156;2024-01-27T03:03:53;4.10;1.00
1626;DHT22;806;48.770;9.156;2024-01-27T03:06:20;4.20;1.00
1626;DHT22;806;48.770;9.156;2024-01-27T03:08:47;4.20;99.90
1626;DHT22;806;48.770;9.156;2024-01-27T03:11:14;4.10;99.90
1626;DHT22;806;48.770;9.156;2024-01-27T03:13:41;4.00;99.90
1626;DHT22;806;48.770;9.156;2024-01-27T03:16:12;3.90;1.00
1626;DHT22;806;48.770;9.156;2024-01-27T03:18:40;3.70;99.90
1626;DHT22;806;48.770;9.156;2024-01-27T03:21:07;3.50;99.90
1626;DHT22;806;48.770;9.156;2024-01-27T03:23:34;3.50;99.90
1626;DHT22;806;48.770;9.156;2024-01-27T03:26:02;3.40;1.00
1626;DHT22;806;48.770;9.156;2024-01-27T03:28:30;3.40;1.00
1626;DHT22;806;48.770;9.156;2024-01-27T03:30:57;3.50;1.00
1626;DHT22;806;48.770;9.156;2024-01-27T03:33:26;3.60;1.00
1626;DHT22;806;48.770;9.156;2024-01-27T03:35:56;3.70;1.00
1626;DHT22;806;48.770;9.156;2024-01-27T03:38:23;3.80;1.00
1626;DHT22;806;48.770;9.156;2024-01-27T03:40:51;3.70;1.00
1626;DHT22;806;48.770;9.156;2024-01-27T03:43:18;3.80;1.00
1626;DHT22;806;48.770;9.156;2024-01-27T03:45:45;3.70;1.00
1626;DHT22;806;48.770;9.156;2024-01-27T03:48:12;3.70;1.00
1626;DHT22;806;48.770;9.156;2024-01-27T03:50:41;3.70;1.00
1626;DHT22;806;48.770;9.156;2024-01-27T03:53:08;3.70;1.00
1626;DHT22;806;48.770;9.156;2024-01-27T03:55:35;3.70;1.00
1626;DHT22;806;48.770;9.156;2024-01-27T03:58:02;3.70;1.00
1626;DHT22;806;48.770;9.156;2024-01-27T04:00:30;3.70;1.00
1626;DHT22;806;48.770;9.156;2024-01-27T04:02:58;3.70;1.00
1626;DHT22;806;48.770;9.156;2024-01-27T04:05:27;3.70;1.00
1626;DHT22;806;48.770;9.156;2024-01-27T04:07:55;3.70;1.00
1626;DHT22;806;48.770;9.156;2024-01-27T04:10:23;3.60;1.00
1626;DHT22;806;48.770;9.156;2024-01-27T04:12:49;3.60;99.90
1626;DHT22;806;48.770;9.156;2024-01-27T04:15:17;3.60;1.00
1626;DHT22;806;48.770;9.156;2024-01-27T04:17:44;3.60;1.00
1626;DHT22;806;48.770;9.156;2024-01-27T04:20:11;3.50;1.00
1626;DHT22;806;48.770;9.156;2024-01-27T04:22:39;3.50;1.00
1626;DHT22;806;48.770;9.156;2024-01-27T04:25:08;3.60;1.00
1626;DHT22;806;48.770;9.156;2024-01-27T04:27:37;3.50;1.00
1626;DHT22;806;48.770;9.156;2024-01-27T04:30:06;3.60;1.00
1626;DHT22;806;48.770;9.156;2024-01-27T04:32:32;3.60;1.00
1626;DHT22;806;48.770;9.156;2024-01-27T04:35:00;3.60;1.00
1626;DHT22;806;48.770;9.156;2024-01-27T04:37:27;3.70;1.00
1626;DHT22;806;48.770;9.156;2024-01-27T04:39:54;3.80;1.00
1626;DHT22;806;48.770;9.156;2024-01-27T04:42:22;3.70;1.00
1626;DHT22;806;48.770;9.156;2024-01-27T04:44:49;3.70;99.90
1626;DHT22;806;48.770;9.156;2024-01-27T04:47:16;3.60;99.90
1626;DHT22;806;48.770;9.156;2024-01-27T04:49:43;3.60;99.90
1626;DHT22;806;48.770;9.156;2024-01-27T04:52:10;3.50;1.00
1626;DHT22;806;48.770;9.156;2024-01-27T04:54:37;3.50;1.00
1626;DHT22;806;48.770;9.156;2024-01-27T04:57:04;3.40;1.00
1626;DHT22;806;48.770;9.156;2024-01-27T04:59:33;3.40;1.00
1626;DHT22;806;48.770;9.156;2024-01-27T05:02:00;3.40;1.00
1626;DHT22;806;48.770;9.156;2024-01-27T05:04:27;3.40;1.00
1626;DHT22;806;48.770;9.156;2024-01-27T05:06:54;3.40;1.00
1626;DHT22;806;48.770;9.156;2024-01-27T05:09:21;3.40;1.00
1626;DHT22;806;48.770;9.156;2024-01-27T05:11:48;3.50;1.00
1626;DHT22;806;48.770;9.156;2024-01-27T05:14:17;3.60;1.00
1626;DHT22;806;48.770;9.156;2024-01-27T05:16:46;3.70;1.00
1626;DHT22;806;48.770;9.156;2024-01-27T05:19:13;3.70;1.00
1626;DHT22;806;48.770;9.156;2024-01-27T05:21:42;3.50;1.00
1626;DHT22;806;48.770;9.156;2024-01-27T05:24:09;3.50;1.00
1626;DHT22;806;48.770;9.156;2024-01-27T05:26:36;3.40;1.00
1626;DHT22;806;48.770;9.156;2024-01-27T05:29:03;3.40;1.00
1626;DHT22;806;48.770;9.156;2024-01-27T05:31:30;3.30;1.00
1626;DHT22;806;48.770;9.156;2024-01-27T05:33:59;3.20;1.00
1626;DHT22;806;48.770;9.156;2024-01-27T05:36:26;3.30;1.00
1626;DHT22;806;48.770;9.156;2024-01-27T05:38:53;4.00;1.00
1626;DHT22;806;48.770;9.156;2024-01-27T05:41:20;4.40;1.00
1626;DHT22;806;48.770;9.156;2024-01-27T05:43:47;4.50;99.90
1626;DHT22;806;48.770;9.156;2024-01-27T05:46:14;4.10;1.00
1626;DHT22;806;48.770;9.156;2024-01-27T05:48:41;4.00;1.00
1626;DHT22;806;48.770;9.156;2024-01-27T05:51:09;3.80;1.00
1626;DHT22;806;48.770;9.156;2024-01-27T05:53:37;3.50;1.00
1626;DHT22;806;48.770;9.156;2024-01-27T05:56:05;3.20;99.90
1626;DHT22;806;48.770;9.156;2024-01-27T05:58:32;3.10;99.90
1626;DHT22;806;48.770;9.156;2024-01-27T06:00:59;2.90;1.00
1626;DHT22;806;48.770;9.156;2024-01-27T06:03:26;2.80;1.00
1626;DHT22;806;48.770;9.156;2024-01-27T06:05:53;2.70;1.00
1626;DHT22;806;48.770;9.156;2024-01-27T06:08:21;2.70;1.00
1626;DHT22;806;48.770;9.156;2024-01-27T06:10:49;2.70;1.00
1626;DHT22;806;48.770;9.156;2024-01-27T06:13:16;2.70;1.00
1626;DHT22;806;48.770;9.156;2024-01-27T06:15:44;2.70;1.00
1626;DHT22;806;48.770;9.156;2024-01-27T06:18:11;2.80;1.00
1626;DHT22;806;48.770;9.156;2024-01-27T06:20:38;2.90;1.00
1626;DHT22;806;48.770;9.156;2024-01-27T06:23:06;2.90;1.00
1626;DHT22;806;48.770;9.156;2024-01-27T06:25:34;2.90;1.00
1626;DHT22;806;48.770;9.156;2024-01-27T06:28:02;3.00;1.00
1626;DHT22;806;48.770;9.156;2024-01-27T06:30:29;2.90;1.00
1626;DHT22;806;48.770;9.156;2024-01-27T06:32:56;2.80;1.00
1626;DHT22;806;48.770;9.156;2024-01-27T06:35:23;2.70;1.00
1626;DHT22;806;48.770;9.156;2024-01-27T06:37:50;2.90;1.00
1626;DHT22;806;48.770;9.156;2024-01-27T06:40:18;3.10;1.00
1626;DHT22;806;48.770;9.156;2024-01-27T06:42:47;3.20;1.00
1626;DHT22;806;48.770;9.156;2024-01-27T06:45:14;3.20;1.00
1626;DHT22;806;48.770;9.156;2024-01-27T06:47:41;3.10;1.00
1626;DHT22;806;48.770;9.156;2024-01-27T06:50:09;3.20;1.00
1626;DHT22;806;48.770;9.156;2024-01-27T06:52:36;3.50;1.00
1626;DHT22;806;48.770;9.156;2024-01-27T06:55:04;4.30;1.00
1626;DHT22;806;48.770;9.156;2024-01-27T06:57:32;4.60;1.00
1626;DHT22;806;48.770;9.156;2024-01-27T07:00:01;4.50;99.90
1626;DHT22;806;48.770;9.156;2024-01-27T07:02:29;4.40;99.90
1626;DHT22;806;48.770;9.156;2024-01-27T07:04:56;4.10;1.00
1626;DHT22;806;48.770;9.156;2024-01-27T07:07:26;3.80;1.00
1626;DHT22;806;48.770;9.156;2024-01-27T07:09:54;3.50;1.00
1626;DHT22;806;48.770;9.156;2024-01-27T07:12:21;3.40;99.90
1626;DHT22;806;48.770;9.156;2024-01-27T07:14:48;3.30;99.90
1626;DHT22;806;48.770;9.156;2024-01-27T07:17:18;3.20;1.00
1626;DHT22;806;48.770;9.156;2024-01-27T07:19:45;3.10;1.00
1626;DHT22;806;48.770;9.156;2024-01-27T07:22:12;3.10;1.00
1626;DHT22;806;48.770;9.156;2024-01-27T07:24:39;3.00;1.00
1626;DHT22;806;48.770;9.156;2024-01-27T07:27:06;3.00;1.00
1626;DHT22;806;48.770;9.156;2024-01-27T07:29:33;3.00;1.00
1626;DHT22;806;48.770;9.156;2024-01-27T07:32:00;2.90;1.00
1626;DHT22;806;48.770;9.156;2024-01-27T07:34:30;2.90;1.00
1626;DHT22;806;48.770;9.156;2024-01-27T07:36:57;2.80;1.00
1626;DHT22;806;48.770;9.156;2024-01-27T07:39:24;2.80;1.00
1626;DHT22;806;48.770;9.156;2024-01-27T07:41:51;2.80;1.00
1626;DHT22;806;48.770;9.156;2024-01-27T07:44:18;2.80;1.00
1626;DHT22;806;48.770;9.156;2024-01-27T07:46:45;2.90;1.00
1626;DHT22;806;48.770;9.156;2024-01-27T07:49:12;3.00;1.00
1626;DHT22;806;48.770;9.156;2024-01-27T07:51:42;3.00;1.00
1626;DHT22;806;48.770;9.156;2024-01-27T07:54:09;3.10;1.00
1626;DHT22;806;48.770;9.156;2024-01-27T07:56:37;3.10;1.00
1626;DHT22;806;48.770;9.156;2024-01-27T07:59:04;3.20;1.00
1626;DHT22;806;48.770;9.156;2024-01-27T08:01:31;3.20;1.00
1626;DHT22;806;48.770;9.156;2024-01-27T08:03:57;3.30;1.00
1626;DHT22;806;48.770;9.156;2024-01-27T08:06:28;3.10;1.00
1626;DHT22;806;48.770;9.156;2024-01-27T08:08:57;3.20;1.00
1626;DHT22;806;48.770;9.156;2024-01-27T08:11:25;3.30;1.00
1626;DHT22;806;48.770;9.156;2024-01-27T08:13:52;3.40;1.00
1626;DHT22;806;48.770;9.156;2024-01-27T08:16:19;3.50;1.00
1626;DHT22;806;48.770;9.156;2024-01-27T08:18:47;3.60;1.00
1626;DHT22;806;48.770;9.156;2024-01-27T08:21:14;3.70;1.00
1626;DHT22;806;48.770;9.156;2024-01-27T08:23:41;3.70;1.00
1626;DHT22;806;48.770;9.156;2024-01-27T08:26:09;3.60;1.00
1626;DHT22;806;48.770;9.156;2024-01-27T08:28:36;3.60;1.00
1626;DHT22;806;48.770;9.156;2024-01-27T08:31:04;3.50;1.00
1626;DHT22;806;48.770;9.156;2024-01-27T08:33:31;3.60;1.00
1626;DHT22;806;48.770;9.156;2024-01-27T08:35:58;3.60;99.90
1626;DHT22;806;48.770;9.156;2024-01-27T08:38:25;3.60;99.90
1626;DHT22;806;48.770;9.156;2024-01-27T08:40:52;3.50;99.90
1626;DHT22;806;48.770;9.156;2024-01-27T08:43:20;3.60;1.00
1626;DHT22;806;48.770;9.156;2024-01-27T08:45:47;3.90;1.00
1626;DHT22;806;48.770;9.156;2024-01-27T08:48:14;4.20;99.90
1626;DHT22;806;48.770;9.156;2024-01-27T08:50:42;4.20;99.90
1626;DHT22;806;48.770;9.156;2024-01-27T08:53:09;4.40;1.00
1626;DHT22;806;48.770;9.156;2024-01-27T08:55:36;4.30;1.00
1626;DHT22;806;48.770;9.156;2024-01-27T08:58:03;4.30;1.00
1626;DHT22;806;48.770;9.156;2024-01-27T09:00:32;4.40;1.00
1626;DHT22;806;48.770;9.156;2024-01-27T09:02:59;4.40;99.90
1626;DHT22;806;48.770;9.156;2024-01-27T09:05:27;4.40;99.90
1626;DHT22;806;48.770;9.156;2024-01-27T09:07:54;4.50;42.60
1626;DHT22;806;48.770;9.156;2024-01-27T09:10:21;4.50;99.90
1626;DHT22;806;48.770;9.156;2024-01-27T09:12:48;4.40;99.90
1626;DHT22;806;48.770;9.156;2024-01-27T09:15:16;4.40;1.00
1626;DHT22;806;48.770;9.156;2024-01-27T09:17:44;4.30;12.90
1626;DHT22;806;48.770;9.156;2024-01-27T09:20:11;4.20;1.00
1626;DHT22;806;48.770;9.156;2024-01-27T09:22:38;4.20;1.00
1626;DHT22;806;48.770;9.156;2024-01-27T09:25:08;4.20;1.00
1626;DHT22;806;48.770;9.156;2024-01-27T09:27:35;4.20;99.90
1626;DHT22;806;48.770;9.156;2024-01-27T09:30:02;4.30;1.00
1626;DHT22;806;48.770;9.156;2024-01-27T09:32:30;4.30;1.00
1626;DHT22;806;48.770;9.156;2024-01-27T09:34:59;4.20;99.90
1626;DHT22;806;48.770;9.156;2024-01-27T09:37:26;4.30;99.90
1626;DHT22;806;48.770;9.156;2024-01-27T09:39:52;4.40;1.00
1626;DHT22;806;48.770;9.156;2024-01-27T09:42:21;4.20;1.00
1626;DHT22;806;48.770;9.156;2024-01-27T09:44:49;4.30;99.90
1626;DHT22;806;48.770;9.156;2024-01-27T09:47:16;4.40;99.90
1626;DHT22;806;48.770;9.156;2024-01-27T09:49:45;4.60;1.00
1626;DHT22;806;48.770;9.156;2024-01-27T09:52:15;4.60;99.90
1626;DHT22;806;48.770;9.156;2024-01-27T09:54:42;4.60;33.40
1626;DHT22;806;48.770;9.156;2024-01-27T09:57:09;4.60;99.90
1626;DHT22;806;48.770;9.156;2024-01-27T09:59:39;4.70;99.90
1626;DHT22;806;48.770;9.156;2024-01-27T10:02:11;4.70;1.00
1626;DHT22;806;48.770;9.156;2024-01-27T10:04:39;4.70;1.00
1626;DHT22;806;48.770;9.156;2024-01-27T10:07:07;4.80;1.00
1626;DHT22;806;48.770;9.156;2024-01-27T10:09:36;4.80;1.00
1626;DHT22;806;48.770;9.156;2024-01-27T10:12:03;4.90;1.00
1626;DHT22;806;48.770;9.156;2024-01-27T10:14:38;5.00;1.00
1626;DHT22;806;48.770;9.156;2024-01-27T10:17:05;5.20;1.00
1626;DHT22;806;48.770;9.156;2024-01-27T10:19:35;5.20;1.00
1626;DHT22;806;48.770;9.156;2024-01-27T10:22:03;5.30;1.00
1626;DHT22;806;48.770;9.156;2024-01-27T10:24:32;5.30;1.00
1626;DHT22;806;48.770;9.156;2024-01-27T10:27:05;5.30;1.00
1626;DHT22;806;48.770;9.156;2024-01-27T10:29:35;5.30;1.00
1626;DHT22;806;48.770;9.156;2024-01-27T10:32:09;5.30;1.00
1626;DHT22;806;48.770;9.156;2024-01-27T10:34:37;5.40;99.90
1626;DHT22;806;48.770;9.156;2024-01-27T10:37:04;5.50;99.90
1626;DHT22;806;48.770;9.156;2024-01-27T10:39:32;5.60;1.00
1626;DHT22;806;48.770;9.156;2024-01-27T10:42:04;5.60;1.00
1626;DHT22;806;48.770;9.156;2024-01-27T10:44:34;5.60;1.00
1626;DHT22;806;48.770;9.156;2024-01-27T10:47:04;5.70;99.90
1626;DHT22;806;48.770;9.156;2024-01-27T10:49:34;5.80;1.00
1626;DHT22;806;48.770;9.156;2024-01-27T10:52:09;5.90;99.90
1626;DHT22;806;48.770;9.156;2024-01-27T10:54:39;5.90;99.90
1626;DHT22;806;48.770;9.156;2024-01-27T10:57:10;6.00;99.90
1626;DHT22;806;48.770;9.156;2024-01-27T10:59:39;6.10;1.00
1626;DHT22;806;48.770;9.156;2024-01-27T11:02:12;6.30;99.90
1626;DHT22;806;48.770;9.156;2024-01-27T11:04:42;6.40;99.90
1626;DHT22;806;48.770;9.156;2024-01-27T11:07:09;6.50;1.00
1626;DHT22;806;48.770;9.156;2024-01-27T11:09:37;6.50;1.00
1626;DHT22;806;48.770;9.156;2024-01-27T11:12:08;6.50;1.00
1626;DHT22;806;48.770;9.156;2024-01-27T11:14:35;6.70;40.20
1626;DHT22;806;48.770;9.156;2024-01-27T11:17:03;6.70;1.00
1626;DHT22;806;48.770;9.156;2024-01-27T11:19:32;6.80;1.00
1626;DHT22;806;48.770;9.156;2024-01-27T11:22:00;6.60;1.00
1626;DHT22;806;48.770;9.156;2024-01-27T11:24:27;6.70;1.00
1626;DHT22;806;48.770;9.156;2024-01-27T11:27:00;6.80;1.00
1626;DHT22;806;48.770;9.156;2024-01-27T11:29:30;6.80;1.00
1626;DHT22;806;48.770;9.156;2024-01-27T11:32:00;6.80;99.90
1626;DHT22;806;48.770;9.156;2024-01-27T11:34:28;6.90;33.30
1626;DHT22;806;48.770;9.156;2024-01-27T11:36:56;6.90;57.90
1626;DHT22;806;48.770;9.156;2024-01-27T11:39:24;6.90;17.60
1626;DHT22;806;48.770;9.156;2024-01-27T11:41:51;6.90;1.00
1626;DHT22;806;48.770;9.156;2024-01-27T11:44:19;6.90;1.00
1626;DHT22;806;48.770;9.156;2024-01-27T11:46:48;7.00;1.00
1626;DHT22;806;48.770;9.156;2024-01-27T11:49:16;7.10;93.80
1626;DHT22;806;48.770;9.156;2024-01-27T11:51:43;7.00;1.00
1626;DHT22;806;48.770;9.156;2024-01-27T11:54:11;7.10;1.00
1626;DHT22;806;48.770;9.156;2024-01-27T11:56:38;7.10;1.00
1626;DHT22;806;48.770;9.156;2024-01-27T11:59:05;7.10;1.00
1626;DHT22;806;48.770;9.156;2024-01-27T12:01:32;7.20;99.90
1626;DHT22;806;48.770;9.156;2024-01-27T12:04:02;7.20;1.00
1626;DHT22;806;48.770;9.156;2024-01-27T12:06:29;7.20;1.00
1626;DHT22;806;48.770;9.156;2024-01-27T12:08:56;7.20;1.00
1626;DHT22;806;48.770;9.156;2024-01-27T12:11:24;7.20;1.00
1626;DHT22;806;48.770;9.156;2024-01-27T12:13:51;7.20;1.00
1626;DHT22;806;48.770;9.156;2024-01-27T12:16:21;7.20;1.00
1626;DHT22;806;48.770;9.156;2024-01-27T12:18:52;7.20;1.00
1626;DHT22;806;48.770;9.156;2024-01-27T12:21:20;7.20;1.00
1626;DHT22;806;48.770;9.156;2024-01-27T12:23:54;7.20;1.00
1626;DHT22;806;48.770;9.156;2024-01-27T12:26:21;7.20;1.00
1626;DHT22;806;48.770;9.156;2024-01-27T12:28:49;7.20;99.90
1626;DHT22;806;48.770;9.156;2024-01-27T12:31:16;7.20;99.90
1626;DHT22;806;48.770;9.156;2024-01-27T12:33:51;7.20;99.90
1626;DHT22;806;48.770;9.156;2024-01-27T12:36:20;7.20;99.90
1626;DHT22;806;48.770;9.156;2024-01-27T12:38:54;7.30;1.00
1626;DHT22;806;48.770;9.156;2024-01-27T12:41:21;7.30;99.90
1626;DHT22;806;48.770;9.156;2024-01-27T12:43:48;7.30;1.00
1626;DHT22;806;48.770;9.156;2024-01-27T12:46:15;7.40;99.90
1626;DHT22;806;48.770;9.156;2024-01-27T12:48:43;7.50;99.90
1626;DHT22;806;48.770;9.156;2024-01-27T12:51:10;7.50;99.90
1626;DHT22;806;48.770;9.156;2024-01-27T12:53:38;7.60;99.90
1626;DHT22;806;48.770;9.156;2024-01-27T12:56:07;7.50;99.90
1626;DHT22;806;48.770;9.156;2024-01-27T12:58:35;7.60;99.90
1626;DHT22;806;48.770;9.156;2024-01-27T13:01:02;7.40;99.90
1626;DHT22;806;48.770;9.156;2024-01-27T13:03:29;7.40;99.90
1626;DHT22;806;48.770;9.156;2024-01-27T13:05:57;7.50;99.90
1626;DHT22;806;48.770;9.156;2024-01-27T13:08:24;7.50;99.90
1626;DHT22;806;48.770;9.156;2024-01-27T13:10:53;7.60;99.90
1626;DHT22;806;48.770;9.156;2024-01-27T13:13:20;7.70;99.90
1626;DHT22;806;48.770;9.156;2024-01-27T13:16:01;7.90;99.90
1626;DHT22;806;48.770;9.156;2024-01-27T13:18:28;8.00;99.90
1626;DHT22;806;48.770;9.156;2024-01-27T13:20:55;7.90;99.90
1626;DHT22;806;48.770;9.156;2024-01-27T13:23:22;7.90;99.90
1626;DHT22;806;48.770;9.156;2024-01-27T13:25:49;7.80;99.90
1626;DHT22;806;48.770;9.156;2024-01-27T13:28:18;7.80;93.50
1626;DHT22;806;48.770;9.156;2024-01-27T13:30:45;7.70;84.00
1626;DHT22;806;48.770;9.156;2024-01-27T13:33:13;7.80;99.90
1626;DHT22;806;48.770;9.156;2024-01-27T13:35:40;7.90;42.30
1626;DHT22;806;48.770;9.156;2024-01-27T13:38:12;8.00;35.70
1626;DHT22;806;48.770;9.156;2024-01-27T13:40:39;8.10;18.40
1626;DHT22;806;48.770;9.156;2024-01-27T13:43:06;8.20;28.40
1626;DHT22;806;48.770;9.156;2024-01-27T13:45:34;8.30;21.10
1626;DHT22;806;48.770;9.156;2024-01-27T13:48:01;8.30;1.00
1626;DHT22;806;48.770;9.156;2024-01-27T13:50:28;8.30;1.00
1626;DHT22;806;48.770;9.156;2024-01-27T13:52:56;8.40;1.00
1626;DHT22;806;48.770;9.156;2024-01-27T13:55:23;8.40;1.00
1626;DHT22;806;48.770;9.156;2024-01-27T13:57:51;8.40;1.00
1626;DHT22;806;48.770;9.156;2024-01-27T14:00:18;8.50;1.00
1626;DHT22;806;48.770;9.156;2024-01-27T14:02:47;8.50;1.00
1626;DHT22;806;48.770;9.156;2024-01-27T14:05:15;8.40;1.00
1626;DHT22;806;48.770;9.156;2024-01-27T14:07:43;8.40;1.00
1626;DHT22;806;48.770;9.156;2024-01-27T14:10:10;8.30;1.00
1626;DHT22;806;48.770;9.156;2024-01-27T14:12:37;8.30;1.00
1626;DHT22;806;48.770;9.156;2024-01-27T14:15:05;8.30;1.00
1626;DHT22;806;48.770;9.156;2024-01-27T14:17:33;8.20;1.00
1626;DHT22;806;48.770;9.156;2024-01-27T14:20:04;8.10;1.00
1626;DHT22;806;48.770;9.156;2024-01-27T14:22:31;8.10;1.00
1626;DHT22;806;48.770;9.156;2024-01-27T14:24:58;8.00;1.00
1626;DHT22;806;48.770;9.156;2024-01-27T14:27:25;7.90;1.00
1626;DHT22;806;48.770;9.156;2024-01-27T14:29:53;7.90;1.00
1626;DHT22;806;48.770;9.156;2024-01-27T14:32:21;7.90;1.00
1626;DHT22;806;48.770;9.156;2024-01-27T14:34:48;7.80;1.00
1626;DHT22;806;48.770;9.156;2024-01-27T14:37:16;7.80;1.00
1626;DHT22;806;48.770;9.156;2024-01-27T14:39:43;7.80;1.00
1626;DHT22;806;48.770;9.156;2024-01-27T14:42:11;7.80;1.00
1626;DHT22;806;48.770;9.156;2024-01-27T14:44:39;7.70;1.00
1626;DHT22;806;48.770;9.156;2024-01-27T14:47:06;7.80;1.00
1626;DHT22;806;48.770;9.156;2024-01-27T14:49:35;7.80;1.00
1626;DHT22;806;48.770;9.156;2024-01-27T14:52:04;7.70;1.00
1626;DHT22;806;48.770;9.156;2024-01-27T14:54:33;7.70;1.00
1626;DHT22;806;48.770;9.156;2024-01-27T14:57:01;7.80;9.90
1626;DHT22;806;48.770;9.156;2024-01-27T14:59:30;7.80;20.60
1626;DHT22;806;48.770;9.156;2024-01-27T15:01:57;7.80;34.90
1626;DHT22;806;48.770;9.156;2024-01-27T15:04:25;7.70;75.30
1626;DHT22;806;48.770;9.156;2024-01-27T15:06:53;7.60;56.40
1626;DHT22;806;48.770;9.156;2024-01-27T15:09:20;7.60;98.80
1626;DHT22;806;48.770;9.156;2024-01-27T15:11:49;7.60;99.90
1626;DHT22;806;48.770;9.156;2024-01-27T15:14:16;7.60;99.90
1626;DHT22;806;48.770;9.156;2024-01-27T15:16:46;7.60;99.90
1626;DHT22;806;48.770;9.156;2024-01-27T15:19:14;7.60;99.90
1626;DHT22;806;48.770;9.156;2024-01-27T15:21:44;7.60;99.90
1626;DHT22;806;48.770;9.156;2024-01-27T15:24:11;7.60;99.90
1626;DHT22;806;48.770;9.156;2024-01-27T15:26:38;7.60;99.90
1626;DHT22;806;48.770;9.156;2024-01-27T15:29:07;7.60;99.90
1626;DHT22;806;48.770;9.156;2024-01-27T15:31:34;7.60;99.90
1626;DHT22;806;48.770;9.156;2024-01-27T15:34:01;7.60;99.90
1626;DHT22;806;48.770;9.156;2024-01-27T15:36:28;7.60;99.90
1626;DHT22;806;48.770;9.156;2024-01-27T15:38:56;7.50;99.90
1626;DHT22;806;48.770;9.156;2024-01-27T15:41:23;7.50;99.90
1626;DHT22;806;48.770;9.156;2024-01-27T15:43:51;7.40;99.90
1626;DHT22;806;48.770;9.156;2024-01-27T15:46:22;7.40;99.90
1626;DHT22;806;48.770;9.156;2024-01-27T15:48:49;7.40;99.90
1626;DHT22;806;48.770;9.156;2024-01-27T15:51:16;7.30;99.90
1626;DHT22;806;48.770;9.156;2024-01-27T15:53:43;7.30;99.90
1626;DHT22;806;48.770;9.156;2024-01-27T15:56:10;7.30;1.00
1626;DHT22;806;48.770;9.156;2024-01-27T15:58:37;7.20;1.00
1626;DHT22;806;48.770;9.156;2024-01-27T16:01:06;7.20;99.90
1626;DHT22;806;48.770;9.156;2024-01-27T16:03:36;7.10;99.90
1626;DHT22;806;48.770;9.156;2024-01-27T16:06:04;7.10;99.90
1626;DHT22;806;48.770;9.156;2024-01-27T16:08:33;7.00;99.90
1626;DHT22;806;48.770;9.156;2024-01-27T16:11:00;7.10;99.90
1626;DHT22;806;48.770;9.156;2024-01-27T16:13:28;7.00;99.90
1626;DHT22;806;48.770;9.156;2024-01-27T16:15:58;7.00;99.90
1626;DHT22;806;48.770;9.156;2024-01-27T16:18:25;6.90;99.90
1626;DHT22;806;48.770;9.156;2024-01-27T16:20:53;6.90;99.90
1626;DHT22;806;48.770;9.156;2024-01-27T16:23:20;6.90;99.90
1626;DHT22;806;48.770;9.156;2024-01-27T16:25:48;6.90;99.90
1626;DHT22;806;48.770;9.156;2024-01-27T16:28:15;6.90;1.00
1626;DHT22;806;48.770;9.156;2024-01-27T16:30:42;6.80;1.00
1626;DHT22;806;48.770;9.156;2024-01-27T16:33:09;6.80;1.00
1626;DHT22;806;48.770;9.156;2024-01-27T16:35:36;6.70;1.00
1626;DHT22;806;48.770;9.156;2024-01-27T16:38:05;6.70;1.00
1626;DHT22;806;48.770;9.156;2024-01-27T16:40:33;6.70;1.00
1626;DHT22;806;48.770;9.156;2024-01-27T16:43:03;6.70;1.00
1626;DHT22;806;48.770;9.156;2024-01-27T16:45:30;6.60;1.00
1626;DHT22;806;48.770;9.156;2024-01-27T16:47:58;6.60;1.00
1626;DHT22;806;48.770;9.156;2024-01-27T16:50:26;6.50;1.00